Hamburg, Arkansas
Current Conditions -  °F | °C
As of 4:53 PM on Wednesday 26 Nov 2014 (Local Time) from KLLQ Reporting Station
Clear Clear  
Wind Chill: 56°   Ceiling: Unl
Heat Index: 56°   Visibility: 10mi
Dew Point: 34°   Wind: 6mph
Humidity: 44%   Direction: 280°W
Pressure: 30.11"   Gusts: NA
Location:  33.23°N, 91.8°W
Report Text: KLLQ 262253Z AUTO 28005KT 10SM CLR 13/01 A3011 RMK AO2 SLP198 T01330011
Loading
Personal Weather Stations






























Interactive Weather Map New forecast layout! Learn more

10-Day Weather Forecast

Advertisements
Track Severe Weather on mobile